Time;durP1;ratioP1;P1;durP2;ratioP2;P2;SDS_P1;SDS_P2;PMS_P1;PMS_P2;Temp;Humidity;BMP_temperature;BMP_pressure;BME280_temperature;BME280_humidity;BME280_pressure;Samples;Min_cycle;Max_cycle;Signal;HPM_P1;HPM_P2
2022/08/25 00:07:38;;;;;;;;;;;;;;;23.56;63.46;100350.84;20610742;28;20376;-72
2022/08/25 00:17:39;;;;;;;;;;;;;;;23.54;63.45;100348.34;20656700;28;20008;-73
2022/08/25 00:27:39;;;;;;;;;;;;;;;23.49;63.45;100345.28;20598955;28;20344;-73
2022/08/25 00:37:39;;;;;;;;;;;;;;;23.40;63.61;100339.00;20594390;28;20409;-73
2022/08/25 00:47:40;;;;;;;;;;;;;;;23.36;63.54;100339.41;20614305;28;19926;-73
2022/08/25 00:57:58;;;;;;;;;;;;;;;23.43;63.05;100340.53;20625903;28;19972;-73
2022/08/25 01:08:01;;;;;;;;;;;;;;;23.36;63.04;100342.03;20636832;28;20067;-73
2022/08/25 01:18:02;;;;;;;;;;;;;;;23.28;62.76;100335.63;20605499;28;20052;-74
2022/08/25 01:28:03;;;;;;;;;;;;;;;23.25;63.25;100335.88;20632989;28;22042;-73
2022/08/25 01:38:04;;;;;;;;;;;;;;;23.25;62.78;100332.41;20655626;28;20423;-74
2022/08/25 01:48:05;;;;;;;;;;;;;;;23.18;62.75;100329.47;20646192;28;19994;-73
2022/08/25 01:58:05;;;;;;;;;;;;;;;23.01;62.90;100323.81;20644074;28;19926;-73
2022/08/25 02:08:06;;;;;;;;;;;;;;;22.90;63.26;100326.56;20633500;28;19956;-74
2022/08/25 02:18:13;;;;;;;;;;;;;;;22.81;63.50;100322.91;20647566;28;19926;-73
2022/08/25 02:28:13;;;;;;;;;;;;;;;22.81;63.58;100325.53;20617729;28;19925;-73
2022/08/25 02:38:14;;;;;;;;;;;;;;;22.70;63.67;100315.91;20555112;28;19924;-73
2022/08/25 02:48:14;;;;;;;;;;;;;;;22.62;64.19;100314.84;20555321;28;20293;-75
2022/08/25 02:58:15;;;;;;;;;;;;;;;22.61;64.63;100315.84;20558771;28;20384;-75
2022/08/25 03:08:15;;;;;;;;;;;;;;;22.69;64.34;100313.38;20552398;28;19925;-73
2022/08/25 03:18:16;;;;;;;;;;;;;;;22.70;64.60;100313.25;20598585;28;19952;-73
2022/08/25 03:28:17;;;;;;;;;;;;;;;22.71;64.52;100308.81;20608193;28;19930;-74
2022/08/25 03:38:17;;;;;;;;;;;;;;;22.67;64.42;100320.59;20570223;28;20045;-74
2022/08/25 03:48:18;;;;;;;;;;;;;;;22.62;64.88;100312.22;20597274;28;19952;-73
2022/08/25 03:58:18;;;;;;;;;;;;;;;22.64;64.42;100316.41;20589494;28;19965;-74
2022/08/25 04:08:18;;;;;;;;;;;;;;;22.66;64.42;100313.63;20613090;28;19930;-73
2022/08/25 04:18:19;;;;;;;;;;;;;;;22.71;64.36;100322.81;20587811;28;19972;-73
2022/08/25 04:28:19;;;;;;;;;;;;;;;22.70;64.69;100321.16;20657793;28;21650;-75
2022/08/25 04:38:19;;;;;;;;;;;;;;;22.26;66.17;100322.22;20660484;28;19925;-74
2022/08/25 04:48:21;;;;;;;;;;;;;;;22.06;67.42;100319.44;20660302;28;19992;-74
2022/08/25 04:58:21;;;;;;;;;;;;;;;21.95;68.15;100322.97;20686899;28;19932;-73
2022/08/25 05:08:22;;;;;;;;;;;;;;;21.87;68.51;100326.22;20655019;28;19922;-72
2022/08/25 05:18:23;;;;;;;;;;;;;;;21.85;68.83;100309.69;20657259;28;20368;-72
2022/08/25 05:28:23;;;;;;;;;;;;;;;21.94;69.02;100315.19;20682336;28;19928;-72
2022/08/25 05:38:24;;;;;;;;;;;;;;;21.88;69.36;100317.34;20674225;28;19922;-72
2022/08/25 05:48:25;;;;;;;;;;;;;;;22.13;68.49;100312.72;20659325;28;19925;-74
2022/08/25 05:58:29;;;;;;;;;;;;;;;22.22;68.32;100317.19;20680719;28;19924;-71
2022/08/25 06:08:32;;;;;;;;;;;;;;;22.46;67.37;100315.31;20658753;28;19928;-72
2022/08/25 06:18:33;;;;;;;;;;;;;;;22.61;67.28;100319.31;20655773;28;19999;-73
2022/08/25 06:28:33;;;;;;;;;;;;;;;22.74;67.08;100324.38;20667112;28;20409;-72
2022/08/25 06:38:34;;;;;;;;;;;;;;;22.95;66.11;100331.41;20685059;28;19940;-73
2022/08/25 06:48:34;;;;;;;;;;;;;;;23.12;66.13;100329.97;20623452;28;19932;-73
2022/08/25 06:58:36;;;;;;;;;;;;;;;23.23;65.68;100326.41;20607505;28;19926;-74
2022/08/25 07:08:37;;;;;;;;;;;;;;;23.31;65.12;100327.44;20600436;28;19925;-72
2022/08/25 07:18:37;;;;;;;;;;;;;;;23.48;65.54;100319.81;20652382;28;19925;-74
2022/08/25 07:28:37;;;;;;;;;;;;;;;23.58;64.69;100314.56;20700397;28;20499;-74
2022/08/25 07:38:38;;;;;;;;;;;;;;;23.71;64.57;100317.78;20689123;28;20396;-74
2022/08/25 07:48:38;;;;;;;;;;;;;;;23.81;64.05;100313.34;20665002;28;19925;-74
2022/08/25 07:58:39;;;;;;;;;;;;;;;23.94;63.57;100321.03;20688842;28;20020;-75
2022/08/25 08:08:44;;;;;;;;;;;;;;;24.06;62.74;100313.81;20701342;28;20045;-75
2022/08/25 08:18:44;;;;;;;;;;;;;;;24.18;62.21;100321.56;20688828;28;19964;-74
2022/08/25 08:28:45;;;;;;;;;;;;;;;24.27;62.24;100311.00;20603742;28;20377;-74
2022/08/25 08:38:45;;;;;;;;;;;;;;;24.36;61.58;100313.78;20677809;28;19932;-73
2022/08/25 08:48:59;;;;;;;;;;;;;;;24.44;61.28;100309.44;20715165;28;20342;-73
2022/08/25 08:59:11;;;;;;;;;;;;;;;24.50;61.07;100309.84;20685110;28;19963;-73
2022/08/25 09:09:14;;;;;;;;;;;;;;;24.57;61.04;100301.19;20641398;28;19981;-74
2022/08/25 09:19:24;;;;;;;;;;;;;;;24.62;60.03;100291.00;20657408;28;19963;-73
2022/08/25 09:29:27;;;;;;;;;;;;;;;24.73;59.58;100268.00;20691421;28;19928;-73
2022/08/25 09:39:27;;;;;;;;;;;;;;;24.79;58.86;100262.13;20700714;28;19949;-72
2022/08/25 09:49:41;;;;;;;;;;;;;;;24.86;58.16;100249.97;20697068;28;19967;-71
2022/08/25 09:59:43;;;;;;;;;;;;;;;24.91;58.29;100223.88;20671850;28;19921;-73
2022/08/25 10:09:49;;;;;;;;;;;;;;;25.02;57.71;100216.72;20678241;28;19968;-73
2022/08/25 10:20:11;;;;;;;;;;;;;;;25.05;57.67;100219.06;20675338;28;19932;-74
2022/08/25 10:30:22;;;;;;;;;;;;;;;25.09;57.65;100202.72;20680844;28;19929;-72
2022/08/25 10:40:35;;;;;;;;;;;;;;;25.14;57.25;100196.97;20680017;28;20004;-72
2022/08/25 10:50:39;;;;;;;;;;;;;;;25.19;57.21;100191.22;20679172;28;19922;-73
2022/08/25 11:00:47;;;;;;;;;;;;;;;25.23;57.40;100182.84;20659395;28;19929;-73
2022/08/25 11:10:47;;;;;;;;;;;;;;;25.29;57.71;100168.13;20673614;28;20425;-75
2022/08/25 11:20:50;;;;;;;;;;;;;;;25.32;58.15;100151.94;20639849;28;19988;-75
2022/08/25 11:30:51;;;;;;;;;;;;;;;25.38;58.30;100146.06;20629001;28;19981;-75
2022/08/25 11:40:58;;;;;;;;;;;;;;;25.42;58.16;100126.19;20631251;28;19928;-74
2022/08/25 11:51:01;;;;;;;;;;;;;;;25.50;57.99;100111.34;20636710;28;20305;-74
2022/08/25 12:01:03;;;;;;;;;;;;;;;25.57;57.86;100107.09;20696134;28;19917;-75
2022/08/25 12:11:06;;;;;;;;;;;;;;;25.65;57.83;100093.06;20732684;28;20396;-74
2022/08/25 12:21:06;;;;;;;;;;;;;;;25.73;57.42;100091.31;20707404;28;20407;-75
2022/08/25 12:31:27;;;;;;;;;;;;;;;25.80;57.41;100096.81;20701520;28;20012;-75
2022/08/25 12:41:30;;;;;;;;;;;;;;;25.85;56.69;100078.63;20717422;28;19917;-75
2022/08/25 12:51:42;;;;;;;;;;;;;;;25.93;56.90;100069.88;20732953;28;19947;-74
2022/08/25 13:01:45;;;;;;;;;;;;;;;25.99;56.30;100065.75;20674416;28;19917;-75
2022/08/25 13:12:01;;;;;;;;;;;;;;;26.07;56.54;100067.63;20669949;28;19928;-75
2022/08/25 13:22:08;;;;;;;;;;;;;;;26.10;55.91;100062.00;20683778;28;19918;-74
2022/08/25 13:32:11;;;;;;;;;;;;;;;26.17;55.96;100047.94;20646284;28;20455;-75
2022/08/25 13:42:14;;;;;;;;;;;;;;;26.20;55.99;100039.66;20678773;28;19922;-74
2022/08/25 13:52:22;;;;;;;;;;;;;;;26.27;55.86;100036.34;20640506;28;20461;-74
2022/08/25 14:02:43;;;;;;;;;;;;;;;26.36;56.33;100027.44;20704998;28;19925;-74
2022/08/25 14:12:45;;;;;;;;;;;;;;;26.27;55.83;100023.09;20661609;28;19941;-74
2022/08/25 14:22:45;;;;;;;;;;;;;;;26.42;55.68;100020.66;20654182;28;19954;-75
2022/08/25 14:32:45;;;;;;;;;;;;;;;26.47;55.49;100013.03;20670068;28;19933;-74
2022/08/25 14:42:46;;;;;;;;;;;;;;;26.49;55.32;100011.88;20669082;28;19929;-74
2022/08/25 14:52:47;;;;;;;;;;;;;;;26.51;54.83;100011.69;20640865;28;19929;-73
2022/08/25 15:02:49;;;;;;;;;;;;;;;26.54;55.33;100003.41;20647548;28;20825;-74
2022/08/25 15:12:50;;;;;;;;;;;;;;;26.56;55.21;99997.94;20672624;28;19922;-77
2022/08/25 15:22:50;;;;;;;;;;;;;;;26.58;55.28;100006.56;20696178;28;19921;-75
2022/08/25 15:32:50;;;;;;;;;;;;;;;26.59;55.33;99995.78;20710158;28;19929;-75
2022/08/25 15:42:51;;;;;;;;;;;;;;;26.62;55.07;99981.34;20716463;28;19932;-76
2022/08/25 15:52:51;;;;;;;;;;;;;;;26.63;55.43;99975.03;20711660;28;19933;-76
2022/08/25 16:02:51;;;;;;;;;;;;;;;26.63;55.41;99975.88;20724494;28;19917;-75
2022/08/25 16:12:52;;;;;;;;;;;;;;;26.64;55.66;99966.09;20648888;28;20029;-75
2022/08/25 16:22:53;;;;;;;;;;;;;;;26.64;55.16;99968.75;20692137;28;19980;-74
2022/08/25 16:32:53;;;;;;;;;;;;;;;26.63;55.13;99959.94;20628152;28;20282;-74
2022/08/25 16:42:53;;;;;;;;;;;;;;;26.63;55.01;99961.78;20601609;28;19952;-74
2022/08/25 17:03:13;;;;;;;;;;;;;;;26.57;55.27;99968.56;20626747;28;19960;-74
2022/08/25 17:13:13;;;;;;;;;;;;;;;26.55;55.38;99977.69;20652124;28;19932;-73
2022/08/25 17:23:13;;;;;;;;;;;;;;;26.53;55.60;99988.47;20679766;28;19991;-73
2022/08/25 17:33:14;;;;;;;;;;;;;;;26.50;55.59;99978.16;20656497;28;19929;-74
2022/08/25 17:43:14;;;;;;;;;;;;;;;26.44;55.56;99990.28;20648578;28;20455;-74
2022/08/25 17:53:16;;;;;;;;;;;;;;;26.50;55.79;99994.94;20660111;28;20024;-73
2022/08/25 18:03:16;;;;;;;;;;;;;;;26.48;55.40;100006.72;20657270;28;19922;-72
2022/08/25 18:13:17;;;;;;;;;;;;;;;26.49;55.58;100011.06;20658144;28;19964;-72
2022/08/25 18:23:18;;;;;;;;;;;;;;;26.41;55.67;100009.19;20682395;28;21686;-72
2022/08/25 18:33:18;;;;;;;;;;;;;;;26.45;55.90;100013.19;20663565;28;19988;-73
2022/08/25 18:43:19;;;;;;;;;;;;;;;26.44;55.85;100013.34;20704213;28;19929;-73
2022/08/25 18:53:20;;;;;;;;;;;;;;;26.44;55.10;100013.34;20674340;28;19929;-76
2022/08/25 19:03:22;;;;;;;;;;;;;;;26.41;55.21;100017.16;20624989;28;19925;-72
2022/08/25 19:13:22;;;;;;;;;;;;;;;26.35;54.87;100010.69;20694880;28;19983;-73
2022/08/25 19:23:22;;;;;;;;;;;;;;;26.30;55.15;100012.97;20679345;28;20392;-72
2022/08/25 19:33:23;;;;;;;;;;;;;;;26.25;55.01;100015.28;20686653;28;20830;-72
2022/08/25 19:43:23;;;;;;;;;;;;;;;26.19;54.78;100015.94;20672602;28;19936;-73
2022/08/25 19:53:23;;;;;;;;;;;;;;;26.15;55.09;100022.56;20707128;28;19975;-73
2022/08/25 20:03:24;;;;;;;;;;;;;;;26.11;55.09;100024.72;20691781;28;20507;-72
2022/08/25 20:13:24;;;;;;;;;;;;;;;26.05;55.72;100017.38;20720195;28;19925;-72
2022/08/25 20:33:44;;;;;;;;;;;;;;;25.93;55.93;100019.47;20704363;28;19929;-72
2022/08/25 20:43:44;;;;;;;;;;;;;;;25.83;56.36;100022.25;20697804;28;19960;-73
2022/08/25 20:53:45;;;;;;;;;;;;;;;25.79;55.92;100020.06;20690622;28;19925;-72
2022/08/25 21:03:45;;;;;;;;;;;;;;;25.67;56.48;100020.34;20647544;28;19917;-72
2022/08/25 21:13:45;;;;;;;;;;;;;;;25.63;56.91;100021.63;20682262;28;19922;-75
2022/08/25 21:23:47;;;;;;;;;;;;;;;25.62;57.03;100011.19;20700078;28;19924;-72
2022/08/25 21:33:51;;;;;;;;;;;;;;;25.58;57.02;100010.66;20684773;28;19936;-72
2022/08/25 21:43:51;;;;;;;;;;;;;;;25.52;57.21;100009.50;20651027;28;19948;-72
2022/08/25 21:54:07;;;;;;;;;;;;;;;25.41;57.82;100007.09;20655722;28;19925;-73
2022/08/25 22:04:09;;;;;;;;;;;;;;;25.37;58.30;100003.91;20698835;28;19925;-73
2022/08/25 22:14:09;;;;;;;;;;;;;;;25.32;58.16;100014.13;20679735;28;20306;-72
2022/08/25 22:24:10;;;;;;;;;;;;;;;25.27;58.33;100013.75;20694122;28;19920;-72
2022/08/25 22:34:10;;;;;;;;;;;;;;;25.23;58.59;100010.59;20689256;28;19952;-72
2022/08/25 22:44:10;;;;;;;;;;;;;;;25.20;58.54;100005.59;20656553;28;19925;-72
2022/08/25 22:54:13;;;;;;;;;;;;;;;25.14;58.74;100002.75;20620257;28;20422;-73
2022/08/25 23:04:13;;;;;;;;;;;;;;;25.00;59.08;99997.00;20681115;28;19921;-72
2022/08/25 23:14:14;;;;;;;;;;;;;;;24.97;59.05;99994.66;20693303;28;20379;-73
2022/08/25 23:24:15;;;;;;;;;;;;;;;25.01;59.17;99990.72;20683484;28;19921;-73
2022/08/25 23:34:15;;;;;;;;;;;;;;;24.91;59.66;99982.88;20672998;28;19999;-75
2022/08/25 23:44:16;;;;;;;;;;;;;;;24.79;60.03;99976.13;20651135;28;19941;-73
2022/08/25 23:54:18;;;;;;;;;;;;;;;24.74;60.20;99975.75;20635339;28;19965;-73
